Flight Track Log - Related Links

Times and Time Zones

All times are in EDT time to prevent confusion due to time zone crossing. See the SKW5550 flight status page for this flight to view local times or setup timezone preferences in your user account.

Time Position Orientation Groundspeed Altitude Reporting Facility
EDT Latitude Longitude Course Direction KTS MPH feet Rate Location/Type
Sat 08:05:00 AM 44.2836 -108.7613 154° Southeast  Level FlightAware Approximate
Sat 08:06:00 AM 44.1749 -108.6975 158° South  Level FlightAware Approximate
Sat 08:07:00 AM 44.0652 -108.6370 159° South  Level FlightAware Approximate
Sat 08:08:00 AM 43.9555 -108.5768 157° South  Level FlightAware Approximate
Sat 08:09:00 AM 43.8468 -108.5133 157° South  Level FlightAware Approximate
Sat 08:09:46 AM 43.8983 -108.5081 142° Southeast 399 459 17,100  Level Salt Lake Center
Sat 08:10:00 AM 43.7380 -108.4502 157° South  Level FlightAware Approximate
Sat 08:10:47 AM 43.8075 -108.4225 146° Southeast 409 471 18,000  Level Salt Lake Center
Sat 08:11:00 AM 43.6290 -108.3879 158° South  Level FlightAware Approximate
Sat 08:11:47 AM 43.7086 -108.3283 145° Southeast 411 473 19,000  Level Salt Lake Center
Sat 08:12:00 AM 43.5201 -108.3254 156° South  Level FlightAware Approximate
Sat 08:12:48 AM 43.6172 -108.2419 146° Southeast 412 474 20,000  Level Salt Lake Center
Sat 08:13:00 AM 43.4175 -108.2478 142° Southeast  Level FlightAware Approximate
Sat 08:13:48 AM 43.5244 -108.1503 144° Southeast 417 480 21,000  Level Salt Lake Center
Sat 08:14:00 AM 43.3330 -108.1566 142° Southeast  Level Estimated
Sat 08:14:48 AM 43.4158 -108.0453 145° Southeast 423 487 22,100  Level Salt Lake Center
Sat 08:15:00 AM 43.2484 -108.0657 142° Southeast  Level Estimated
Sat 08:15:49 AM 43.3208 -107.9564 146° Southeast 426 490 22,800  Level Salt Lake Center
Sat 08:16:49 AM 43.2250 -107.8653 145° Southeast 430 495 23,500 595 Climbing Salt Lake Center
Sat 08:17:50 AM 43.1275 -107.7722 145° Southeast 436 502 24,000 595 Climbing Salt Lake Center
Sat 08:18:50 AM 43.0111 -107.6636 146° Southeast 444 511 24,700 694 Climbing Salt Lake Center
Sat 08:19:51 AM 42.9097 -107.5661 145° Southeast 456 525 25,400 645 Climbing Salt Lake Center
Sat 08:20:51 AM 42.8111 -107.4733 145° Southeast 453 521 26,000 595 Climbing Salt Lake Center
Sat 08:21:52 AM 42.6933 -107.3650 146° Southeast 455 524 26,600 545 Climbing Salt Lake Center
Sat 08:22:52 AM 42.5919 -107.2714 146° Southeast 459 528 27,100 496 Climbing Salt Lake Center
Sat 08:23:53 AM 42.4917 -107.1758 145° Southeast 459 528 27,600 645 Climbing Salt Lake Center
Sat 08:24:53 AM 42.3764 -107.0608 144° Southeast 461 531 28,400 694 Climbing Salt Lake Center
Sat 08:25:54 AM 42.2783 -106.9619 143° Southeast 460 529 29,000 545 Climbing Salt Lake Center
Sat 08:26:54 AM 42.1794 -106.8636 144° Southeast 461 531 29,500 496 Climbing Salt Lake Center
Sat 08:27:55 AM 42.0792 -106.7661 144° Southeast 463 533 30,000 545 Climbing Salt Lake Center
Sat 08:28:55 AM 41.9633 -106.6508 143° Southeast 463 533 30,600 496 Climbing Salt Lake Center
Sat 08:29:56 AM 41.8656 -106.5572 145° Southeast 466 536 31,000 198 Climbing Salt Lake Center
Sat 08:30:56 AM 41.7500 -106.4417 143° Southeast 467 537 31,000  Level Salt Lake Center
Sat 08:31:57 AM 41.6461 -106.3403 144° Southeast 480 552 31,000  Level Salt Lake Center
Sat 08:33:12 AM 41.5069 -106.2039 144° Southeast 486 559 31,000  Level Denver Center
Sat 08:34:13 AM 41.4011 -106.1033 145° Southeast 488 562 31,000  Level Denver Center
Sat 08:35:14 AM 41.2786 -105.9847 144° Southeast 488 562 31,000 -148 Level Denver Center
Sat 08:36:15 AM 41.1711 -105.8817 144° Southeast 496 571 30,700 -722 Descending Denver Center
Sat 08:37:27 AM 41.0233 -105.7417 144° Southeast 509 586 29,400 -1,083 Descending Denver Center
Sat 08:38:28 AM 40.9272 -105.6494 144° Southeast 510 587 28,300 -1,770 Descending Denver Center
Sat 08:39:29 AM 40.8133 -105.5414 144° Southeast 506 582 25,800 -2,852 Descending Denver Center
Sat 08:40:30 AM 40.6781 -105.4147 145° Southeast 498 573 22,500 -2,754 Descending Denver Center
Sat 08:41:31 AM 40.5722 -105.3136 144° Southeast 476 548 20,200 -1,624 Descending Denver Center
Sat 08:42:43 AM 40.4903 -105.2158 138° Southeast 413 475 18,900 -1,534 Descending Denver Center
Sat 08:43:44 AM 40.4447 -105.0669 112° Southeast 362 417 16,800 -1,869 Descending Denver Center
Sat 08:44:45 AM 40.4106 -104.9489 111° Southeast 350 403 15,100 -1,328 Descending Denver Center
Sat 08:45:46 AM 40.3814 -104.8428 110° East 316 364 14,100 -1,082 Descending Denver Center
Sat 08:46:47 AM 40.3531 -104.7553 113° Southeast 271 312 12,900 -1,279 Descending Denver Center
Sat 08:47:48 AM 40.2769 -104.7211 161° South 305 351 11,500 -1,377 Descending Denver Center
Sat 08:48:49 AM 40.1811 -104.6914 167° South 328 377 10,100 -1,190 Descending Denver Center
Sat 08:49:49 AM 40.1064 -104.6858 177° South 268 308 9,100 -1,000 Descending Denver Center

Login

Don't have an account? Register now (free) for customized features, flight alerts, and more!